• Join FlightAware (Why Join?)
  • Login
  • US Flag 
07:15AM EDT


 

Airport Tracker/Info


-or-


 

Live Flight TrackerFlight Track Log ✈ CFS820 ✈ 13-Sep-2013 ✈ KMSO - KGTF

Flight Track Log - Related Links

Times and Time Zones

All times are in EDT time to prevent confusion due to time zone crossing. See the CFS820 flight status page for this flight to view local times or setup timezone preferences in your user account.

Time Position Orientation Groundspeed Altitude Reporting Facility
EDT Latitude Longitude Course Direction KTS MPH feet Rate Location/Type
08:44PM 46.9256 -114.1103 75° East 120 138 4,400  Level Salt Lake Center
08:45PM 46.9192 -114.1578 259° West 152 175 5,700 1,020 Climbing Salt Lake Center
08:46PM 46.8953 -114.1089 126° Southeast 185 213 6,600 1,140 Climbing Salt Lake Center
08:47PM 46.9172 -114.0361 66° East 186 214 8,100 1,380 Climbing Salt Lake Center
08:48PM 46.9358 -113.9600 70° East 186 214 9,500 1,320 Climbing Salt Lake Center
08:49PM 46.9522 -113.8842 72° East 193 222 10,900 1,380 Climbing Salt Lake Center
08:50PM 47.0336 -113.5563 75° East  Level Estimated
08:51PM 46.9669 -113.8122 73° East 187 215 12,400  Level Salt Lake Center
08:52PM 46.9825 -113.7361 73° East 182 209 13,700 1,020 Climbing Salt Lake Center
08:53PM 46.9972 -113.6697 72° East 181 208 14,600 600 Climbing Salt Lake Center
08:54PM 47.0119 -113.5942 74° East 192 221 15,000 180 Climbing Salt Lake Center
08:55PM 47.0308 -113.5078 72° East 220 253 15,000  Level Salt Lake Center
08:56PM 47.0500 -113.4158 73° East 235 270 15,000  Level Salt Lake Center
08:57PM 47.0733 -113.3081 72° East 232 267 15,000  Level Salt Lake Center
08:58PM 47.0922 -113.2189 73° East 230 265 15,000  Level Salt Lake Center
08:59PM 47.1106 -113.1281 73° East 232 267 15,000  Level Salt Lake Center
09:00PM 47.1308 -113.0356 72° East 237 273 15,000  Level Salt Lake Center
09:01PM 47.1500 -112.9447 73° East 235 270 15,000  Level Salt Lake Center
09:02PM 47.1692 -112.8458 74° East 234 269 15,000  Level Salt Lake Center
09:03PM 47.1886 -112.7553 72° East 233 268 15,000  Level Salt Lake Center
09:04PM 47.2067 -112.6619 74° East 236 272 15,000  Level Salt Lake Center
09:05PM 47.2244 -112.5711 74° East 235 270 15,000  Level Salt Lake Center
09:06PM 47.2422 -112.4797 74° East 233 268 15,000  Level Salt Lake Center
09:07PM 47.2644 -112.3694 73° East 234 269 15,000 -120 Level Salt Lake Center
09:08PM 47.2831 -112.2786 73° East 233 268 14,800 -360 Descending Salt Lake Center
09:09PM 47.3014 -112.1861 74° East 236 272 14,300 -600 Descending Salt Lake Center
09:10PM 47.3194 -112.0925 74° East 237 273 13,600 -900 Descending Salt Lake Center
09:11PM 47.3389 -111.9939 74° East 244 281 12,500 -1,080 Descending Salt Lake Center
09:12PM 47.3592 -111.8900 74° East 253 291 11,400 -1,080 Descending Salt Lake Center
09:13PM 47.4008 -111.8075 53° Northeast 257 296 10,300 -1,200 Descending Salt Lake Center
09:14PM 47.4231 -111.7039 72° East 266 306 9,000 -1,200 Descending Salt Lake Center
09:15PM 47.3781 -111.6325 133° Southeast 251 289 7,900 -1,080 Descending Salt Lake Center
09:16PM 47.3600 -111.5583 110° East 233 268 6,800 -1,080 Descending Salt Lake Center
09:17PM 47.3939 -111.4950 52° Northeast 213 245 5,700 -1,020 Descending Salt Lake Center
09:18PM 47.4286 -111.4450 44° Northeast 195 224 4,800 -780 Descending Salt Lake Center
09:19PM 47.4522 -111.4103 45° Northeast 152 175 4,100 -600 Descending Salt Lake Center
09:20PM 47.4722 -111.3800 46° Northeast 123 142 3,600 -540 Descending Salt Lake Center
09:22PM 47.4667 -111.3667 90° East  Level FlightAware Approximate